Airfield :
LOGIN :

Register | Disclaimer

   EN    FR    IT 

 










Legend :    VFR   Marginal VFR   IFR   Intensive IFR   Very Intensive IFR
Visi :
Ceiling :
>= 8 km
>= 3000ft
5 to 8 km
1000 to 3000 ft
1500m to 5 km
500 to 1000 ft
800 to 1500m
200 to 500 ft
< 800m
< 200 ft
Symbols :   Thunderstorms  Fog  Heavy snow  Heavy precipitations  Wind > 20 kt
SIGMETs :     Misc.  Thunderstorms  Icing  Turbulence  Mountain Waves  Volcanic Ashes






- Airport Elevation : 138 ft
- IATA code : RLG


ETNL - Rostock Laage

CURRENT METAR :
  • 301520Z 06013KT 9999 FEW048 BKN064 18/04 Q1025 BLU

EXPIRED METARs :
  • 301420Z 07012KT 9999 FEW048 17/05 Q1025 BLU+
  • 301320Z 07012G22KT 9999 FEW052 BKN077 18/04 Q1025 BLU

TAF TAF ETNL
Valid from the 30 at 11:00 until the 30 at 23:00 UTC


301000Z 3011/3023 05010G20KT 9999 NSW SCT050
BECMG 3018/3020 02005KT 9999 NSW FEW060 BY ETGL



MET'MAP, your aeronautical weather chart ! - Copyright ORBIFLY December 2007 - Disclaimer

ORBIFLY MET'MAP TEAM :

Programming & Development : Alexandra Zaïnal
Concept & original design : Baudouin d'Aumeries
Assistance for programming : Marc-Olivier Méhu
Technical & hardware support : Manuel Goepfert

Contact : metmap@orbifly.com




SOURCES & CREDITS :

   NOAA